SBRJ/SDU METAR and TAF weather

Enter ICAO airport designator
Station Type Date Time Source
SBRJ METAR 2019/02/20 08:00 UTC NOAA

SBRJ 200800Z 34006KT CAVOK 25/23 Q1009


Station Type Date Time Source
SBRJ Decoded METAR 2019/02/20 08:00 UTC NOAA

Rio De Janeiro Aeroporto , Brazil (SBRJ) 22-54S 043-10W
Feb 20, 2019 - 03:00 AM EST / 2019.02.20 0800 UTC
Wind: from the NNW (340 degrees) at 7 MPH (6 KT):0
Visibility: greater than 7 mile(s):0
Temperature: 77 F (25 C)
Dew Point: 73 F (23 C)
Relative Humidity: 88%
Pressure (altimeter): 29.80 in. Hg (1009 hPa)
ob: SBRJ 200800Z 34006KT CAVOK 25/23 Q1009
cycle: 8

Station Type Date Time Source
SBRJ TAF 2019/02/20 06:30 UTC NOAA

TAF SBRJ 200330Z 2006/2018 36005KT 8000 SCT015 TN24/2009Z TX35/2016Z
BECMG 2010/2012 31010KT 9999 FEW025
BECMG 2013/2015 19012KT
BECMG 2016/2018 16015KT SCT025 FEW030TCU
RMK PGB


Example: see airport list